Time;durP1;ratioP1;P1;durP2;ratioP2;P2;SDS_P1;SDS_P2;PMS_P1;PMS_P2;Temp;Humidity;BMP_temperature;BMP_pressure;BME280_temperature;BME280_humidity;BME280_pressure;Samples;Min_cycle;Max_cycle;Signal;HPM_P1;HPM_P2
2024/04/14 00:02:21;;;;;;;4.88;1.48;;;;;;;;;;5378375;26;20012;-64
2024/04/14 00:04:52;;;;;;;4.95;1.27;;;;;;;;;;5381906;26;20466;-65
2024/04/14 00:07:19;;;;;;;2.08;1.70;;;;;;;;;;5359059;26;20013;-64
2024/04/14 00:09:45;;;;;;;2.13;1.52;;;;;;;;;;5347001;26;20005;-64
2024/04/14 00:12:11;;;;;;;6.93;1.55;;;;;;;;;;5346749;26;20047;-64
2024/04/14 00:14:37;;;;;;;4.45;1.23;;;;;;;;;;5346927;26;20004;-65
2024/04/14 00:17:03;;;;;;;3.03;1.40;;;;;;;;;;5346969;26;20377;-64
2024/04/14 00:19:29;;;;;;;2.83;1.30;;;;;;;;;;5345118;26;20000;-64
2024/04/14 00:21:55;;;;;;;3.35;1.63;;;;;;;;;;5346850;26;20503;-64
2024/04/14 00:24:21;;;;;;;3.53;1.33;;;;;;;;;;5346752;26;20005;-64
2024/04/14 00:26:49;;;;;;;2.08;1.40;;;;;;;;;;5347341;26;20256;-65
2024/04/14 00:29:15;;;;;;;2.58;1.40;;;;;;;;;;5346556;26;20005;-65
2024/04/14 00:31:41;;;;;;;2.42;1.45;;;;;;;;;;5346671;26;20038;-65
2024/04/14 00:34:10;;;;;;;1.73;1.00;;;;;;;;;;5346842;26;20463;-65
2024/04/14 00:36:36;;;;;;;3.00;1.50;;;;;;;;;;5346604;26;20008;-65
2024/04/14 00:39:02;;;;;;;6.07;2.25;;;;;;;;;;5376127;26;20012;-65
2024/04/14 00:41:28;;;;;;;5.28;1.17;;;;;;;;;;5381316;26;20074;-65
2024/04/14 00:43:54;;;;;;;7.78;1.70;;;;;;;;;;5381297;26;20000;-65
2024/04/14 00:46:20;;;;;;;4.75;1.58;;;;;;;;;;5381340;26;20000;-66
2024/04/14 00:48:46;;;;;;;5.30;1.40;;;;;;;;;;5381864;26;20076;-65
2024/04/14 00:51:12;;;;;;;3.38;1.50;;;;;;;;;;5381328;26;20012;-66
2024/04/14 00:53:38;;;;;;;2.17;1.40;;;;;;;;;;5381351;26;20004;-66
2024/04/14 00:56:05;;;;;;;4.80;1.00;;;;;;;;;;5381273;26;20530;-66
2024/04/14 00:58:31;;;;;;;4.43;1.27;;;;;;;;;;5381192;26;20008;-66
2024/04/14 01:00:57;;;;;;;2.25;1.30;;;;;;;;;;5381314;26;20014;-66
2024/04/14 01:03:23;;;;;;;2.58;1.38;;;;;;;;;;5378677;26;20000;-65
2024/04/14 01:05:49;;;;;;;3.10;1.52;;;;;;;;;;5409201;26;20073;-65
2024/04/14 01:08:16;;;;;;;1.52;1.08;;;;;;;;;;5381149;26;20351;-65
2024/04/14 01:10:42;;;;;;;2.30;1.67;;;;;;;;;;5348922;26;20045;-65
2024/04/14 01:13:08;;;;;;;3.22;1.63;;;;;;;;;;5345724;26;20566;-65
2024/04/14 01:15:34;;;;;;;1.90;1.40;;;;;;;;;;5344887;26;20000;-65
2024/04/14 01:18:00;;;;;;;3.33;1.35;;;;;;;;;;5346025;26;20001;-65
2024/04/14 01:20:27;;;;;;;1.88;1.23;;;;;;;;;;5346119;26;20005;-65
2024/04/14 01:22:53;;;;;;;2.28;1.55;;;;;;;;;;5345627;26;20085;-65
2024/04/14 01:25:19;;;;;;;1.38;0.90;;;;;;;;;;5345716;26;20034;-65
2024/04/14 01:27:45;;;;;;;1.83;1.33;;;;;;;;;;5345991;26;20189;-65
2024/04/14 01:30:11;;;;;;;3.03;1.38;;;;;;;;;;5346106;26;20016;-66
2024/04/14 01:32:38;;;;;;;4.45;1.52;;;;;;;;;;5343856;26;20007;-65
2024/04/14 01:35:04;;;;;;;1.58;0.90;;;;;;;;;;5345790;26;20078;-66
2024/04/14 01:37:30;;;;;;;1.33;1.00;;;;;;;;;;5345612;26;20001;-65
2024/04/14 01:39:56;;;;;;;2.22;1.42;;;;;;;;;;5345638;26;20056;-66
2024/04/14 01:42:23;;;;;;;1.88;1.20;;;;;;;;;;5345311;26;20012;-66
2024/04/14 01:44:49;;;;;;;1.30;1.20;;;;;;;;;;5345771;26;20353;-66
2024/04/14 01:47:15;;;;;;;2.75;1.27;;;;;;;;;;5345630;26;20525;-66
2024/04/14 01:49:41;;;;;;;3.58;1.40;;;;;;;;;;5345568;26;20005;-66
2024/04/14 01:52:07;;;;;;;2.17;1.15;;;;;;;;;;5345092;26;20001;-65
2024/04/14 01:54:33;;;;;;;2.45;1.13;;;;;;;;;;5345490;26;20078;-64
2024/04/14 01:56:59;;;;;;;0.88;0.85;;;;;;;;;;5345304;26;20001;-64
2024/04/14 01:59:25;;;;;;;1.80;1.00;;;;;;;;;;5345524;26;20007;-64
2024/04/14 02:01:51;;;;;;;1.30;1.10;;;;;;;;;;5345156;26;20001;-65
2024/04/14 02:04:17;;;;;;;1.73;1.33;;;;;;;;;;5345792;26;19997;-65
2024/04/14 02:06:43;;;;;;;2.28;1.08;;;;;;;;;;5348863;26;20007;-66
2024/04/14 02:09:09;;;;;;;1.98;1.25;;;;;;;;;;5353753;26;20024;-66
2024/04/14 02:11:35;;;;;;;3.17;1.35;;;;;;;;;;5353229;26;20017;-64
2024/04/14 02:14:01;;;;;;;1.38;1.15;;;;;;;;;;5354297;26;20005;-64
2024/04/14 02:16:28;;;;;;;3.17;1.33;;;;;;;;;;5350312;26;20000;-66
2024/04/14 02:18:54;;;;;;;2.35;1.20;;;;;;;;;;5349991;26;20009;-67
2024/04/14 02:21:20;;;;;;;1.85;0.75;;;;;;;;;;5345119;26;20464;-66
2024/04/14 02:23:46;;;;;;;2.10;1.20;;;;;;;;;;5344790;26;20453;-66
2024/04/14 02:26:12;;;;;;;1.25;1.02;;;;;;;;;;5344675;26;19997;-66
2024/04/14 02:28:38;;;;;;;2.22;1.00;;;;;;;;;;5345066;26;20016;-65
2024/04/14 02:31:04;;;;;;;3.17;1.55;;;;;;;;;;5344899;26;20048;-66
2024/04/14 02:33:30;;;;;;;9.07;1.20;;;;;;;;;;5344645;26;19996;-66
2024/04/14 02:35:57;;;;;;;1.00;0.70;;;;;;;;;;5345283;26;19993;-66
2024/04/14 02:38:23;;;;;;;4.35;1.00;;;;;;;;;;5344923;26;19997;-66
2024/04/14 02:40:56;;;;;;;2.35;0.90;;;;;;;;;;5345047;26;20008;-66
2024/04/14 02:43:22;;;;;;;1.77;1.00;;;;;;;;;;5344693;26;20353;-66
2024/04/14 02:45:48;;;;;;;1.88;1.10;;;;;;;;;;5344783;26;20019;-66
2024/04/14 02:48:14;;;;;;;2.42;1.00;;;;;;;;;;5344820;26;20005;-66
2024/04/14 02:50:40;;;;;;;1.17;1.08;;;;;;;;;;5344667;26;20019;-66
2024/04/14 02:53:06;;;;;;;1.23;0.90;;;;;;;;;;5344317;26;20001;-66
2024/04/14 02:55:32;;;;;;;2.67;1.00;;;;;;;;;;5344624;26;20032;-65
2024/04/14 02:58:01;;;;;;;0.98;0.80;;;;;;;;;;5344532;26;20015;-67
2024/04/14 03:00:27;;;;;;;1.05;0.90;;;;;;;;;;5344636;26;20015;-66
2024/04/14 03:02:53;;;;;;;3.38;0.90;;;;;;;;;;5344307;26;20004;-66
2024/04/14 03:05:19;;;;;;;1.85;0.85;;;;;;;;;;5344553;26;20004;-66
2024/04/14 03:07:45;;;;;;;1.73;0.90;;;;;;;;;;5344379;26;20001;-67
2024/04/14 03:10:12;;;;;;;1.48;0.77;;;;;;;;;;5344546;26;20005;-66
2024/04/14 03:12:38;;;;;;;5.60;1.50;;;;;;;;;;5344294;26;20004;-65
2024/04/14 03:15:04;;;;;;;5.07;1.27;;;;;;;;;;5346031;26;20353;-65
2024/04/14 03:17:30;;;;;;;1.48;1.25;;;;;;;;;;5345517;26;20375;-65
2024/04/14 03:19:56;;;;;;;4.43;1.40;;;;;;;;;;5348858;26;19997;-65
2024/04/14 03:22:22;;;;;;;1.88;1.30;;;;;;;;;;5351418;26;20005;-66
2024/04/14 03:24:48;;;;;;;1.10;0.90;;;;;;;;;;5348723;26;20005;-65
2024/04/14 03:27:14;;;;;;;3.53;1.45;;;;;;;;;;5351218;26;20056;-65
2024/04/14 03:29:40;;;;;;;2.53;1.15;;;;;;;;;;5351872;26;20012;-64
2024/04/14 03:32:07;;;;;;;2.08;1.40;;;;;;;;;;5350972;26;20034;-65
2024/04/14 03:34:34;;;;;;;2.58;1.38;;;;;;;;;;5356802;26;20001;-65
2024/04/14 03:37:00;;;;;;;1.50;1.15;;;;;;;;;;5356035;26;20067;-65
2024/04/14 03:39:26;;;;;;;1.65;1.00;;;;;;;;;;5354344;26;20415;-65
2024/04/14 03:41:52;;;;;;;1.17;1.00;;;;;;;;;;5345311;26;19997;-65
2024/04/14 03:44:18;;;;;;;1.88;1.20;;;;;;;;;;5347322;26;20051;-65
2024/04/14 03:46:45;;;;;;;3.67;1.27;;;;;;;;;;5347130;26;20015;-64
2024/04/14 03:49:11;;;;;;;2.22;1.27;;;;;;;;;;5347154;26;20018;-64
2024/04/14 03:51:37;;;;;;;2.25;1.10;;;;;;;;;;5346855;26;20477;-66
2024/04/14 03:54:03;;;;;;;3.38;1.35;;;;;;;;;;5346945;26;20073;-63
2024/04/14 03:56:29;;;;;;;1.95;1.05;;;;;;;;;;5347086;26;20472;-65
2024/04/14 03:58:55;;;;;;;2.97;1.08;;;;;;;;;;5347290;26;20005;-66
2024/04/14 04:01:21;;;;;;;6.28;1.17;;;;;;;;;;5347376;26;20004;-65
2024/04/14 04:03:47;;;;;;;1.05;0.40;;;;;;;;;;5346570;26;20197;-65
2024/04/14 04:06:13;;;;;;;2.67;0.88;;;;;;;;;;5346938;26;20012;-64
2024/04/14 04:08:39;;;;;;;0.80;0.77;;;;;;;;;;5346955;26;20009;-65
2024/04/14 04:11:05;;;;;;;1.20;0.60;;;;;;;;;;5347070;26;19997;-65
2024/04/14 04:13:34;;;;;;;2.85;0.70;;;;;;;;;;5347399;26;20012;-64
2024/04/14 04:16:01;;;;;;;0.85;0.80;;;;;;;;;;5346910;26;20040;-65
2024/04/14 04:18:27;;;;;;;2.03;0.80;;;;;;;;;;5346880;26;20001;-65
2024/04/14 04:20:54;;;;;;;2.67;0.70;;;;;;;;;;5346817;26;20435;-66
2024/04/14 04:23:20;;;;;;;2.25;0.90;;;;;;;;;;5346637;26;20009;-66
2024/04/14 04:25:46;;;;;;;0.60;0.60;;;;;;;;;;5346741;26;20005;-65
2024/04/14 04:28:12;;;;;;;1.23;0.65;;;;;;;;;;5346706;26;20036;-65
2024/04/14 04:30:38;;;;;;;1.33;0.90;;;;;;;;;;5346800;26;20043;-65
2024/04/14 04:33:04;;;;;;;2.05;0.75;;;;;;;;;;5346181;26;20480;-65
2024/04/14 04:35:30;;;;;;;0.50;0.50;;;;;;;;;;5346712;26;20757;-65
2024/04/14 04:37:57;;;;;;;1.85;0.80;;;;;;;;;;5347592;26;20777;-66
2024/04/14 04:40:23;;;;;;;1.60;0.88;;;;;;;;;;5348596;26;20016;-65
2024/04/14 04:42:50;;;;;;;0.50;0.50;;;;;;;;;;5348094;26;20001;-64
2024/04/14 04:45:16;;;;;;;5.38;1.05;;;;;;;;;;5347156;26;20017;-65
2024/04/14 04:47:42;;;;;;;7.13;1.02;;;;;;;;;;5348357;26;20001;-67
2024/04/14 04:50:09;;;;;;;1.65;0.70;;;;;;;;;;5348903;26;20000;-66
2024/04/14 04:52:35;;;;;;;1.95;0.70;;;;;;;;;;5375205;26;20095;-66
2024/04/14 04:55:01;;;;;;;0.93;0.55;;;;;;;;;;5346648;26;20074;-65
2024/04/14 04:57:27;;;;;;;2.05;0.90;;;;;;;;;;5346454;26;20033;-66
2024/04/14 04:59:53;;;;;;;0.70;0.70;;;;;;;;;;5346573;26;20008;-66
2024/04/14 05:02:19;;;;;;;1.55;0.90;;;;;;;;;;5345713;26;20005;-67
2024/04/14 05:04:45;;;;;;;0.68;0.63;;;;;;;;;;5346332;26;20473;-66
2024/04/14 05:07:11;;;;;;;0.93;0.60;;;;;;;;;;5346254;26;20013;-67
2024/04/14 05:09:36;;;;;;;0.73;0.57;;;;;;;;;;5346251;26;20349;-67
2024/04/14 05:12:03;;;;;;;2.28;0.80;;;;;;;;;;5345817;26;20012;-65
2024/04/14 05:14:29;;;;;;;0.80;0.60;;;;;;;;;;5373483;26;20005;-67
2024/04/14 05:16:55;;;;;;;1.20;0.80;;;;;;;;;;5345890;26;20016;-65
2024/04/14 05:19:21;;;;;;;0.90;0.73;;;;;;;;;;5346014;26;20005;-65
2024/04/14 05:21:47;;;;;;;1.15;0.60;;;;;;;;;;5345749;26;20015;-65
2024/04/14 05:24:13;;;;;;;0.68;0.68;;;;;;;;;;5345964;26;20012;-69
2024/04/14 05:26:38;;;;;;;0.68;0.60;;;;;;;;;;5346018;26;20546;-67
2024/04/14 05:29:04;;;;;;;3.97;1.13;;;;;;;;;;5345959;26;20005;-69
2024/04/14 05:31:30;;;;;;;1.65;0.47;;;;;;;;;;5373255;26;20025;-70
2024/04/14 05:33:56;;;;;;;0.85;0.65;;;;;;;;;;5373225;26;20009;-65
2024/04/14 05:36:23;;;;;;;1.17;0.70;;;;;;;;;;5345683;26;20005;-64
2024/04/14 05:38:49;;;;;;;0.65;0.47;;;;;;;;;;5345663;26;20438;-64
2024/04/14 05:41:17;;;;;;;0.82;0.60;;;;;;;;;;5345992;26;20005;-64
2024/04/14 05:43:43;;;;;;;0.82;0.73;;;;;;;;;;5345643;26;20020;-63
2024/04/14 05:46:09;;;;;;;2.72;1.05;;;;;;;;;;5345550;26;20484;-63
2024/04/14 05:48:35;;;;;;;1.35;0.65;;;;;;;;;;5345559;26;20069;-63
2024/04/14 05:51:01;;;;;;;6.20;1.10;;;;;;;;;;5346071;26;20000;-61
2024/04/14 05:53:27;;;;;;;2.30;0.73;;;;;;;;;;5345547;26;20496;-62
2024/04/14 05:55:53;;;;;;;1.75;0.70;;;;;;;;;;5345837;26;20032;-63
2024/04/14 05:58:19;;;;;;;1.52;0.98;;;;;;;;;;5345547;26;20005;-63
2024/04/14 06:00:45;;;;;;;1.67;0.75;;;;;;;;;;5345240;26;20012;-64
2024/04/14 06:03:11;;;;;;;3.35;0.90;;;;;;;;;;5345442;26;20510;-64
2024/04/14 06:05:37;;;;;;;2.67;1.20;;;;;;;;;;5345535;26;20008;-64
2024/04/14 06:08:03;;;;;;;64.43;3.42;;;;;;;;;;5345426;26;20460;-64
2024/04/14 06:10:29;;;;;;;9.27;2.05;;;;;;;;;;5345437;26;20004;-63
2024/04/14 06:12:55;;;;;;;6.35;1.90;;;;;;;;;;5345058;26;20346;-64
2024/04/14 06:15:21;;;;;;;4.82;1.55;;;;;;;;;;5363779;26;20011;-63
2024/04/14 06:17:47;;;;;;;4.65;1.50;;;;;;;;;;5380501;26;20466;-63
2024/04/14 06:20:13;;;;;;;5.47;1.58;;;;;;;;;;5380182;26;20046;-63
2024/04/14 06:22:39;;;;;;;9.07;1.55;;;;;;;;;;5379979;26;20467;-62
2024/04/14 06:25:05;;;;;;;5.65;1.27;;;;;;;;;;5379951;26;20008;-63
2024/04/14 06:27:31;;;;;;;6.47;1.42;;;;;;;;;;5344931;21;20001;-65
2024/04/14 06:29:57;;;;;;;4.80;1.20;;;;;;;;;;5310606;26;20458;-65
2024/04/14 06:32:23;;;;;;;2.17;1.17;;;;;;;;;;5310484;26;20071;-65
2024/04/14 06:34:49;;;;;;;3.88;1.17;;;;;;;;;;5311031;26;20001;-65
2024/04/14 06:37:15;;;;;;;2.30;1.00;;;;;;;;;;5309194;26;20005;-65
2024/04/14 06:39:42;;;;;;;6.35;1.33;;;;;;;;;;5310403;26;20006;-64
2024/04/14 06:42:08;;;;;;;5.63;1.48;;;;;;;;;;5310444;26;20031;-63
2024/04/14 06:44:34;;;;;;;3.85;1.15;;;;;;;;;;5308963;26;20012;-65
2024/04/14 06:47:00;;;;;;;3.60;0.93;;;;;;;;;;5300773;26;20002;-63
2024/04/14 06:49:26;;;;;;;6.20;1.35;;;;;;;;;;5310162;26;19997;-63
2024/04/14 06:51:52;;;;;;;3.13;1.40;;;;;;;;;;5307836;26;20001;-63
2024/04/14 06:54:18;;;;;;;8.38;1.63;;;;;;;;;;5309000;26;20012;-63
2024/04/14 06:56:44;;;;;;;6.10;1.10;;;;;;;;;;5309642;26;19997;-66
2024/04/14 06:59:10;;;;;;;11.63;2.60;;;;;;;;;;5309502;26;20016;-67
2024/04/14 07:01:36;;;;;;;10.98;1.80;;;;;;;;;;5309384;26;20433;-67
2024/04/14 07:04:02;;;;;;;9.38;1.90;;;;;;;;;;5309054;26;20002;-66
2024/04/14 07:06:28;;;;;;;6.85;1.27;;;;;;;;;;5309319;26;20012;-68
2024/04/14 07:08:54;;;;;;;4.47;1.38;;;;;;;;;;5309319;26;19997;-66
2024/04/14 07:11:20;;;;;;;22.50;1.93;;;;;;;;;;5309279;26;20016;-67
2024/04/14 07:13:46;;;;;;;7.07;1.63;;;;;;;;;;5311073;26;20002;-65
2024/04/14 07:16:12;;;;;;;6.97;1.38;;;;;;;;;;5310608;26;20038;-67
2024/04/14 07:18:38;;;;;;;6.93;1.55;;;;;;;;;;5312160;27;20012;-67
2024/04/14 07:21:04;;;;;;;10.82;1.90;;;;;;;;;;5312044;26;20352;-67
2024/04/14 07:23:31;;;;;;;7.40;1.40;;;;;;;;;;5312199;27;20016;-67
2024/04/14 07:25:58;;;;;;;5.18;1.63;;;;;;;;;;5312058;27;19998;-67
2024/04/14 07:28:24;;;;;;;3.55;1.45;;;;;;;;;;5311496;27;19998;-65
2024/04/14 07:30:50;;;;;;;10.25;1.60;;;;;;;;;;5311466;26;20001;-66
2024/04/14 07:33:16;;;;;;;5.82;1.70;;;;;;;;;;5309092;26;20015;-66
2024/04/14 07:35:42;;;;;;;10.50;1.40;;;;;;;;;;5311480;26;20488;-67
2024/04/14 07:38:08;;;;;;;4.43;1.35;;;;;;;;;;5309381;27;20016;-67
2024/04/14 07:40:34;;;;;;;7.20;1.52;;;;;;;;;;5311197;26;20013;-66
2024/04/14 07:43:00;;;;;;;7.40;1.92;;;;;;;;;;5310687;26;20025;-67
2024/04/14 07:45:27;;;;;;;4.85;1.02;;;;;;;;;;5310977;26;20001;-67
2024/04/14 07:47:53;;;;;;;4.03;1.38;;;;;;;;;;5311246;26;20350;-66
2024/04/14 07:50:19;;;;;;;4.55;1.10;;;;;;;;;;5311844;26;20002;-67
2024/04/14 07:52:45;;;;;;;7.63;1.75;;;;;;;;;;5311786;26;20029;-67
2024/04/14 07:55:10;;;;;;;6.20;1.40;;;;;;;;;;5312092;26;20303;-67
2024/04/14 07:57:36;;;;;;;3.60;0.93;;;;;;;;;;5312176;26;20005;-66
2024/04/14 08:00:04;;;;;;;6.97;1.27;;;;;;;;;;5310304;27;20019;-66
2024/04/14 08:02:30;;;;;;;4.53;1.13;;;;;;;;;;5311870;26;20483;-66
2024/04/14 08:04:55;;;;;;;4.03;1.17;;;;;;;;;;5311790;26;20006;-66
2024/04/14 08:07:21;;;;;;;6.35;1.00;;;;;;;;;;5311827;26;20433;-66
2024/04/14 08:09:47;;;;;;;4.63;1.08;;;;;;;;;;5311966;26;20012;-67
2024/04/14 08:12:13;;;;;;;2.50;0.60;;;;;;;;;;5311226;26;20001;-67
2024/04/14 08:14:40;;;;;;;5.68;1.30;;;;;;;;;;5311876;26;20047;-67
2024/04/14 08:17:05;;;;;;;2.25;1.02;;;;;;;;;;5311635;26;20083;-66
2024/04/14 08:19:32;;;;;;;5.68;1.48;;;;;;;;;;5311875;26;20017;-67
2024/04/14 08:21:58;;;;;;;2.88;0.90;;;;;;;;;;5311972;26;20002;-67
2024/04/14 08:24:24;;;;;;;1.50;0.77;;;;;;;;;;5311577;26;20016;-67
2024/04/14 08:26:50;;;;;;;1.75;0.93;;;;;;;;;;5311831;26;20018;-66
2024/04/14 08:29:16;;;;;;;1.77;0.60;;;;;;;;;;5311520;26;20002;-67
2024/04/14 08:31:42;;;;;;;2.38;1.00;;;;;;;;;;5311573;26;20006;-66
2024/04/14 08:34:08;;;;;;;1.55;0.60;;;;;;;;;;5311481;26;20323;-66
2024/04/14 08:36:34;;;;;;;2.92;0.90;;;;;;;;;;5311553;26;20508;-65
2024/04/14 08:39:00;;;;;;;1.67;0.63;;;;;;;;;;5311570;26;20005;-66
2024/04/14 08:41:26;;;;;;;2.92;0.95;;;;;;;;;;5311287;26;20295;-66
2024/04/14 08:43:55;;;;;;;3.88;0.90;;;;;;;;;;5311581;26;20002;-67
2024/04/14 08:46:22;;;;;;;3.42;1.23;;;;;;;;;;5311495;26;20014;-67
2024/04/14 08:48:48;;;;;;;1.50;0.73;;;;;;;;;;5310702;26;20033;-68
2024/04/14 08:51:14;;;;;;;1.08;0.45;;;;;;;;;;5309274;27;20142;-66
2024/04/14 08:53:42;;;;;;;6.90;1.05;;;;;;;;;;5310996;26;20002;-67
2024/04/14 08:56:08;;;;;;;1.60;0.50;;;;;;;;;;5311358;26;20041;-67
2024/04/14 08:58:35;;;;;;;1.52;0.60;;;;;;;;;;5311237;26;20016;-66
2024/04/14 09:01:04;;;;;;;3.15;0.70;;;;;;;;;;5311085;26;20001;-67
2024/04/14 09:03:33;;;;;;;5.63;1.00;;;;;;;;;;5310725;26;20393;-66
2024/04/14 09:06:08;;;;;;;2.65;1.10;;;;;;;;;;5311179;26;20021;-66
2024/04/14 09:08:35;;;;;;;0.90;0.40;;;;;;;;;;5311144;26;20015;-67
2024/04/14 09:11:01;;;;;;;2.40;0.70;;;;;;;;;;5311098;26;20533;-66
2024/04/14 09:13:30;;;;;;;1.40;0.65;;;;;;;;;;5310718;26;20087;-66
2024/04/14 09:15:56;;;;;;;1.83;0.70;;;;;;;;;;5310831;26;20002;-67
2024/04/14 09:18:22;;;;;;;1.80;0.60;;;;;;;;;;5311088;26;20028;-66
2024/04/14 09:20:48;;;;;;;3.38;0.70;;;;;;;;;;5310880;26;20012;-66
2024/04/14 09:23:14;;;;;;;0.95;0.52;;;;;;;;;;5310994;26;20536;-67
2024/04/14 09:25:40;;;;;;;1.58;0.90;;;;;;;;;;5310771;26;20017;-66
2024/04/14 09:28:10;;;;;;;1.00;0.73;;;;;;;;;;5310851;26;20364;-67
2024/04/14 09:30:36;;;;;;;1.45;0.50;;;;;;;;;;5311102;26;20016;-67
2024/04/14 09:33:02;;;;;;;1.77;0.88;;;;;;;;;;5310071;26;20369;-66
2024/04/14 09:35:28;;;;;;;1.08;0.50;;;;;;;;;;5309513;26;20029;-66
2024/04/14 09:37:55;;;;;;;1.42;0.50;;;;;;;;;;5311330;26;20013;-66
2024/04/14 09:40:22;;;;;;;0.75;0.30;;;;;;;;;;5310970;26;19998;-65
2024/04/14 09:42:51;;;;;;;1.13;0.50;;;;;;;;;;5310115;26;20016;-67
2024/04/14 09:45:17;;;;;;;3.55;0.30;;;;;;;;;;5309345;26;20017;-67
2024/04/14 09:47:44;;;;;;;1.50;0.70;;;;;;;;;;5309995;26;20005;-67
2024/04/14 09:50:10;;;;;;;0.90;0.68;;;;;;;;;;5307883;26;20342;-66
2024/04/14 09:52:37;;;;;;;5.65;0.95;;;;;;;;;;5309654;26;20036;-66
2024/04/14 09:55:04;;;;;;;1.13;0.60;;;;;;;;;;5309568;26;20071;-66
2024/04/14 09:57:30;;;;;;;1.55;0.40;;;;;;;;;;5309567;26;20069;-66
2024/04/14 09:59:56;;;;;;;4.13;0.82;;;;;;;;;;5309450;26;19997;-67
2024/04/14 10:02:26;;;;;;;1.48;0.47;;;;;;;;;;5309229;26;20009;-66
2024/04/14 10:04:53;;;;;;;0.82;0.45;;;;;;;;;;5307713;26;20021;-66
2024/04/14 10:07:20;;;;;;;1.13;0.50;;;;;;;;;;5309263;26;20016;-67
2024/04/14 10:09:49;;;;;;;0.50;0.28;;;;;;;;;;5309348;26;20393;-67
2024/04/14 10:12:21;;;;;;;0.30;0.20;;;;;;;;;;5309008;26;20481;-67
2024/04/14 10:14:48;;;;;;;1.35;0.55;;;;;;;;;;5309243;26;20005;-67
2024/04/14 10:17:14;;;;;;;1.55;0.15;;;;;;;;;;5309213;26;20017;-67
2024/04/14 10:19:40;;;;;;;0.85;0.47;;;;;;;;;;5309888;26;20564;-67
2024/04/14 10:22:09;;;;;;;1.50;0.57;;;;;;;;;;5309252;26;20069;-67
2024/04/14 10:24:48;;;;;;;2.33;0.57;;;;;;;;;;5309309;26;20006;-66
2024/04/14 10:27:14;;;;;;;2.05;0.30;;;;;;;;;;5309263;26;20432;-66
2024/04/14 10:29:41;;;;;;;0.50;0.30;;;;;;;;;;5309054;26;20017;-68
2024/04/14 10:32:13;;;;;;;0.75;0.40;;;;;;;;;;5309007;26;20338;-66
2024/04/14 10:34:39;;;;;;;0.88;0.40;;;;;;;;;;5308799;26;20005;-67
2024/04/14 10:37:05;;;;;;;0.75;0.20;;;;;;;;;;5308833;26;20009;-66
2024/04/14 10:39:32;;;;;;;0.25;0.17;;;;;;;;;;5308382;26;20307;-67
2024/04/14 10:41:58;;;;;;;1.02;0.35;;;;;;;;;;5309488;26;20002;-67
2024/04/14 10:44:24;;;;;;;0.75;0.20;;;;;;;;;;5309137;26;20028;-67
2024/04/14 10:46:50;;;;;;;0.47;0.30;;;;;;;;;;5309391;26;20006;-66
2024/04/14 10:49:16;;;;;;;0.20;0.20;;;;;;;;;;5309552;26;20511;-67
2024/04/14 10:51:42;;;;;;;0.40;0.30;;;;;;;;;;5309096;26;20002;-66
2024/04/14 10:54:09;;;;;;;0.93;0.20;;;;;;;;;;5308882;26;20005;-66
2024/04/14 10:56:35;;;;;;;1.05;0.10;;;;;;;;;;5308903;26;20005;-67
2024/04/14 10:59:01;;;;;;;0.57;0.20;;;;;;;;;;5308937;26;20020;-67
2024/04/14 11:01:28;;;;;;;0.52;0.22;;;;;;;;;;5308356;26;19998;-67
2024/04/14 11:03:54;;;;;;;0.28;0.20;;;;;;;;;;5307799;26;20080;-68
2024/04/14 11:06:20;;;;;;;0.47;0.30;;;;;;;;;;5308670;26;20001;-67
2024/04/14 11:08:47;;;;;;;0.30;0.08;;;;;;;;;;5309251;26;20009;-66
2024/04/14 11:11:13;;;;;;;0.50;0.30;;;;;;;;;;5308765;26;20349;-66
2024/04/14 11:13:39;;;;;;;1.20;0.20;;;;;;;;;;5308373;26;20420;-67
2024/04/14 11:16:06;;;;;;;1.48;0.47;;;;;;;;;;5308249;26;20369;-67
2024/04/14 11:18:34;;;;;;;0.68;0.17;;;;;;;;;;5308453;26;20466;-67
2024/04/14 11:21:00;;;;;;;0.45;0.35;;;;;;;;;;5308394;26;20052;-66
2024/04/14 11:23:27;;;;;;;0.20;0.10;;;;;;;;;;5308152;26;20017;-67
2024/04/14 11:25:53;;;;;;;0.13;0.13;;;;;;;;;;5308361;26;20511;-66
2024/04/14 11:28:20;;;;;;;0.52;0.30;;;;;;;;;;5308555;26;20014;-67
2024/04/14 11:30:47;;;;;;;0.10;0.10;;;;;;;;;;5308631;26;20112;-66
2024/04/14 11:33:13;;;;;;;0.60;0.20;;;;;;;;;;5308161;26;20016;-67
2024/04/14 11:35:39;;;;;;;0.73;0.20;;;;;;;;;;5308246;26;20001;-66
2024/04/14 11:38:06;;;;;;;0.25;0.10;;;;;;;;;;5308276;26;20064;-67
2024/04/14 11:40:32;;;;;;;0.17;0.10;;;;;;;;;;5308347;26;20013;-67
2024/04/14 11:42:58;;;;;;;0.25;0.20;;;;;;;;;;5308175;26;20026;-66
2024/04/14 11:45:24;;;;;;;0.13;0.10;;;;;;;;;;5308173;26;20059;-66
2024/04/14 11:47:50;;;;;;;0.28;0.28;;;;;;;;;;5308170;26;20002;-67
2024/04/14 11:50:16;;;;;;;0.20;0.20;;;;;;;;;;5308396;26;20083;-66
2024/04/14 11:52:42;;;;;;;0.10;0.10;;;;;;;;;;5307596;26;20050;-66
2024/04/14 11:55:08;;;;;;;0.35;0.10;;;;;;;;;;5307933;26;20024;-67
2024/04/14 11:57:35;;;;;;;0.00;0.00;;;;;;;;;;5307929;26;20020;-66
2024/04/14 12:00:01;;;;;;;0.20;0.20;;;;;;;;;;5310295;26;20038;-66
2024/04/14 12:02:27;;;;;;;1.55;0.10;;;;;;;;;;5310601;26;20462;-66
2024/04/14 12:04:54;;;;;;;0.20;0.10;;;;;;;;;;5310423;26;20002;-66
2024/04/14 12:07:20;;;;;;;0.20;0.20;;;;;;;;;;5310892;26;20001;-67
2024/04/14 12:09:46;;;;;;;0.10;0.10;;;;;;;;;;5311023;26;19997;-66
2024/04/14 12:12:13;;;;;;;0.22;0.10;;;;;;;;;;5310839;26;20006;-66
2024/04/14 12:14:39;;;;;;;0.25;0.00;;;;;;;;;;5311305;26;20001;-67
2024/04/14 12:17:07;;;;;;;0.10;0.10;;;;;;;;;;5310963;26;20087;-67
2024/04/14 12:19:33;;;;;;;0.10;0.10;;;;;;;;;;5311151;26;20087;-68
2024/04/14 12:21:59;;;;;;;0.65;0.32;;;;;;;;;;5310628;26;20470;-67
2024/04/14 12:24:26;;;;;;;0.40;0.20;;;;;;;;;;5311136;26;20029;-68
2024/04/14 12:26:52;;;;;;;0.43;0.20;;;;;;;;;;5309673;26;20485;-68
2024/04/14 12:29:18;;;;;;;0.10;0.00;;;;;;;;;;5310854;26;20032;-67
2024/04/14 12:31:44;;;;;;;0.10;0.10;;;;;;;;;;5310450;26;20005;-67
2024/04/14 12:34:10;;;;;;;0.10;0.00;;;;;;;;;;5310827;26;20002;-67
2024/04/14 12:36:36;;;;;;;0.75;0.03;;;;;;;;;;5310649;26;20016;-68
2024/04/14 12:39:02;;;;;;;0.00;0.00;;;;;;;;;;5310972;26;20008;-68
2024/04/14 12:41:28;;;;;;;0.00;0.00;;;;;;;;;;5311437;26;20016;-66
2024/04/14 12:43:54;;;;;;;0.30;0.15;;;;;;;;;;5311390;26;20013;-67
2024/04/14 12:46:20;;;;;;;0.20;0.10;;;;;;;;;;5311051;26;19998;-67
2024/04/14 12:48:46;;;;;;;0.10;0.10;;;;;;;;;;5309606;26;19998;-68
2024/04/14 12:51:12;;;;;;;0.10;0.10;;;;;;;;;;5312218;26;20594;-68
2024/04/14 12:53:38;;;;;;;0.30;0.20;;;;;;;;;;5311429;26;20005;-67
2024/04/14 12:56:04;;;;;;;0.17;0.15;;;;;;;;;;5311550;26;20017;-66
2024/04/14 12:58:30;;;;;;;0.10;0.10;;;;;;;;;;5310026;26;20010;-67
2024/04/14 13:00:56;;;;;;;0.08;0.08;;;;;;;;;;5311947;26;20002;-65
2024/04/14 13:03:23;;;;;;;0.10;0.10;;;;;;;;;;5311609;26;20089;-67
2024/04/14 13:05:52;;;;;;;0.10;0.10;;;;;;;;;;5311838;26;20092;-67
2024/04/14 13:08:18;;;;;;;0.03;0.00;;;;;;;;;;5311858;26;20017;-67
2024/04/14 13:10:44;;;;;;;0.20;0.10;;;;;;;;;;5310573;26;20013;-67
2024/04/14 13:13:10;;;;;;;0.10;0.10;;;;;;;;;;5311119;26;20197;-66
2024/04/14 13:15:36;;;;;;;0.20;0.10;;;;;;;;;;5309805;26;20009;-67
2024/04/14 13:18:02;;;;;;;0.08;0.03;;;;;;;;;;5311772;26;20476;-67
2024/04/14 13:20:28;;;;;;;0.00;0.00;;;;;;;;;;5311697;26;19997;-67
2024/04/14 13:22:54;;;;;;;0.20;0.00;;;;;;;;;;5311295;26;20408;-67
2024/04/14 13:25:20;;;;;;;0.05;0.05;;;;;;;;;;5311713;26;20548;-67
2024/04/14 13:27:46;;;;;;;0.00;0.00;;;;;;;;;;5311785;26;20009;-68
2024/04/14 13:30:12;;;;;;;0.17;0.17;;;;;;;;;;5311491;26;20154;-67
2024/04/14 13:32:38;;;;;;;0.15;0.10;;;;;;;;;;5311512;26;20002;-68
2024/04/14 13:35:04;;;;;;;0.00;0.00;;;;;;;;;;5311475;26;20016;-68
2024/04/14 13:37:30;;;;;;;0.00;0.00;;;;;;;;;;5311550;26;19998;-67
2024/04/14 13:39:57;;;;;;;0.30;0.10;;;;;;;;;;5311755;26;20037;-67
2024/04/14 13:42:23;;;;;;;0.10;0.00;;;;;;;;;;5311095;26;20001;-68
2024/04/14 13:44:48;;;;;;;0.35;0.20;;;;;;;;;;5311500;26;20001;-68
2024/04/14 13:47:14;;;;;;;0.10;0.03;;;;;;;;;;5311376;26;20052;-67
2024/04/14 13:49:40;;;;;;;0.00;0.00;;;;;;;;;;5311422;26;20469;-68
2024/04/14 13:52:07;;;;;;;0.10;0.10;;;;;;;;;;5310793;26;19997;-68
2024/04/14 13:54:33;;;;;;;0.00;0.00;;;;;;;;;;5311348;26;20016;-67
2024/04/14 13:56:59;;;;;;;0.10;0.10;;;;;;;;;;5311214;26;20077;-67
2024/04/14 13:59:25;;;;;;;0.10;0.10;;;;;;;;;;5311361;26;19997;-68
2024/04/14 14:01:52;;;;;;;0.10;0.10;;;;;;;;;;5310842;26;19998;-68
2024/04/14 14:04:18;;;;;;;0.30;0.10;;;;;;;;;;5311218;26;19998;-67
2024/04/14 14:06:44;;;;;;;0.30;0.15;;;;;;;;;;5310874;26;19998;-67
2024/04/14 14:09:12;;;;;;;0.00;0.00;;;;;;;;;;5311288;26;20016;-67
2024/04/14 14:11:38;;;;;;;0.00;0.00;;;;;;;;;;5310418;26;20020;-67
2024/04/14 14:14:05;;;;;;;0.10;0.10;;;;;;;;;;5310301;26;20014;-68
2024/04/14 14:16:31;;;;;;;0.10;0.03;;;;;;;;;;5310993;26;20020;-67
2024/04/14 14:18:57;;;;;;;0.13;0.10;;;;;;;;;;5311104;26;20006;-67
2024/04/14 14:21:23;;;;;;;0.13;0.13;;;;;;;;;;5310544;26;20482;-67
2024/04/14 14:23:49;;;;;;;0.10;0.10;;;;;;;;;;5310573;26;20006;-68
2024/04/14 14:26:15;;;;;;;0.20;0.10;;;;;;;;;;5310543;26;20428;-68
2024/04/14 14:28:41;;;;;;;0.00;0.00;;;;;;;;;;5310725;26;20001;-67
2024/04/14 14:31:07;;;;;;;0.00;0.00;;;;;;;;;;5311106;26;20049;-67
2024/04/14 14:36:29;;;;;;;0.00;0.00;;;;;;;;;;5310610;26;20016;-67
2024/04/14 14:38:56;;;;;;;0.10;0.03;;;;;;;;;;5310549;26;20087;-68
2024/04/14 14:41:22;;;;;;;0.00;0.00;;;;;;;;;;5310284;26;20079;-68